sensor_id;sensor_type;location;lat;lon;timestamp;pressure;altitude;pressure_sealevel;temperature;humidity
63351;BME280;64988;51.058;17.040;2022-11-20T00:00:04;99833.00;;;-5.37;79.23
63351;BME280;64988;51.058;17.040;2022-11-20T00:06:02;99826.81;;;-5.36;79.78
63351;BME280;64988;51.058;17.040;2022-11-20T00:11:54;99834.72;;;-5.36;79.87
63351;BME280;64988;51.058;17.040;2022-11-20T00:17:47;99836.34;;;-5.30;81.47
63351;BME280;64988;51.058;17.040;2022-11-20T00:23:41;99837.00;;;-5.20;81.47
63351;BME280;64988;51.058;17.040;2022-11-20T00:29:34;99832.88;;;-5.32;79.82
63351;BME280;64988;51.058;17.040;2022-11-20T00:35:26;99832.28;;;-5.45;79.33
63351;BME280;64988;51.058;17.040;2022-11-20T00:41:20;99827.19;;;-5.52;80.16
63351;BME280;64988;51.058;17.040;2022-11-20T00:47:12;99836.00;;;-5.53;80.00
63351;BME280;64988;51.058;17.040;2022-11-20T00:53:04;99831.69;;;-5.59;80.58
63351;BME280;64988;51.058;17.040;2022-11-20T00:58:59;99845.47;;;-5.46;80.23
63351;BME280;64988;51.058;17.040;2022-11-20T01:04:52;99843.59;;;-5.41;80.16
63351;BME280;64988;51.058;17.040;2022-11-20T01:10:44;99846.97;;;-5.35;79.91
63351;BME280;64988;51.058;17.040;2022-11-20T01:16:38;99849.38;;;-5.25;80.74
63351;BME280;64988;51.058;17.040;2022-11-20T01:22:31;99847.69;;;-5.28;79.97
63351;BME280;64988;51.058;17.040;2022-11-20T01:28:23;99846.00;;;-5.31;79.59
63351;BME280;64988;51.058;17.040;2022-11-20T01:34:18;99845.13;;;-5.31;80.64
63351;BME280;64988;51.058;17.040;2022-11-20T01:40:11;99844.13;;;-5.25;80.52
63351;BME280;64988;51.058;17.040;2022-11-20T01:46:08;99842.34;;;-5.23;79.82
63351;BME280;64988;51.058;17.040;2022-11-20T01:52:11;99847.84;;;-5.36;79.11
63351;BME280;64988;51.058;17.040;2022-11-20T01:58:06;99844.31;;;-5.33;79.64
63351;BME280;64988;51.058;17.040;2022-11-20T02:04:00;99834.78;;;-5.39;79.88
63351;BME280;64988;51.058;17.040;2022-11-20T02:09:53;99834.69;;;-5.34;80.15
63351;BME280;64988;51.058;17.040;2022-11-20T02:15:50;99827.91;;;-5.44;80.50
63351;BME280;64988;51.058;17.040;2022-11-20T02:21:49;99823.53;;;-5.45;80.60
63351;BME280;64988;51.058;17.040;2022-11-20T02:27:46;99817.53;;;-5.52;79.08
63351;BME280;64988;51.058;17.040;2022-11-20T02:33:39;99827.44;;;-5.63;79.21
63351;BME280;64988;51.058;17.040;2022-11-20T02:39:32;99828.38;;;-5.67;79.84
63351;BME280;64988;51.058;17.040;2022-11-20T02:45:24;99832.63;;;-5.60;79.40
63351;BME280;64988;51.058;17.040;2022-11-20T02:51:16;99829.06;;;-5.57;79.93
63351;BME280;64988;51.058;17.040;2022-11-20T02:57:09;99828.38;;;-5.67;80.00
63351;BME280;64988;51.058;17.040;2022-11-20T03:03:01;99821.44;;;-5.69;79.87
63351;BME280;64988;51.058;17.040;2022-11-20T03:08:54;99822.41;;;-5.75;80.03
63351;BME280;64988;51.058;17.040;2022-11-20T03:14:46;99825.09;;;-5.76;80.14
63351;BME280;64988;51.058;17.040;2022-11-20T03:20:45;99825.03;;;-5.73;80.35
63351;BME280;64988;51.058;17.040;2022-11-20T03:26:39;99820.53;;;-5.68;80.02
63351;BME280;64988;51.058;17.040;2022-11-20T03:32:31;99819.69;;;-5.70;80.15
63351;BME280;64988;51.058;17.040;2022-11-20T03:38:25;99824.34;;;-5.83;80.62
63351;BME280;64988;51.058;17.040;2022-11-20T03:44:20;99815.56;;;-5.82;80.32
63351;BME280;64988;51.058;17.040;2022-11-20T03:50:13;99815.50;;;-5.79;80.37
63351;BME280;64988;51.058;17.040;2022-11-20T03:56:07;99816.47;;;-5.85;80.19
63351;BME280;64988;51.058;17.040;2022-11-20T04:02:00;99821.69;;;-5.81;80.59
63351;BME280;64988;51.058;17.040;2022-11-20T04:07:54;99820.69;;;-5.76;80.61
63351;BME280;64988;51.058;17.040;2022-11-20T04:13:57;99830.44;;;-5.81;79.68
63351;BME280;64988;51.058;17.040;2022-11-20T04:19:49;99837.78;;;-5.95;79.77
63351;BME280;64988;51.058;17.040;2022-11-20T04:25:41;99835.97;;;-5.93;79.65
63351;BME280;64988;51.058;17.040;2022-11-20T04:31:34;99822.69;;;-5.87;80.39
63351;BME280;64988;51.058;17.040;2022-11-20T04:37:27;99821.72;;;-5.83;80.73
63351;BME280;64988;51.058;17.040;2022-11-20T04:43:20;99821.72;;;-5.83;79.74
63351;BME280;64988;51.058;17.040;2022-11-20T04:49:13;99817.63;;;-5.95;79.48
63351;BME280;64988;51.058;17.040;2022-11-20T04:55:06;99816.09;;;-6.06;79.45
63351;BME280;64988;51.058;17.040;2022-11-20T05:01:03;99807.41;;;-6.10;79.46
63351;BME280;64988;51.058;17.040;2022-11-20T05:06:56;99804.16;;;-6.22;79.71
63351;BME280;64988;51.058;17.040;2022-11-20T05:12:48;99795.59;;;-6.32;79.63
63351;BME280;64988;51.058;17.040;2022-11-20T05:18:41;99796.50;;;-6.34;79.80
63351;BME280;64988;51.058;17.040;2022-11-20T05:24:34;99805.50;;;-6.46;79.24
63351;BME280;64988;51.058;17.040;2022-11-20T05:30:26;99803.72;;;-6.46;79.73
63351;BME280;64988;51.058;17.040;2022-11-20T05:36:18;99795.06;;;-6.51;80.41
63351;BME280;64988;51.058;17.040;2022-11-20T05:42:11;99789.19;;;-6.65;79.38
63351;BME280;64988;51.058;17.040;2022-11-20T05:48:22;99783.06;;;-6.64;80.36
63351;BME280;64988;51.058;17.040;2022-11-20T05:54:14;99775.13;;;-6.61;80.49
63351;BME280;64988;51.058;17.040;2022-11-20T06:00:09;99769.88;;;-6.61;79.89
63351;BME280;64988;51.058;17.040;2022-11-20T06:06:03;99777.56;;;-6.50;80.08
63351;BME280;64988;51.058;17.040;2022-11-20T06:11:56;99772.94;;;-6.38;80.51
63351;BME280;64988;51.058;17.040;2022-11-20T06:17:52;99770.19;;;-6.31;79.85
63351;BME280;64988;51.058;17.040;2022-11-20T06:23:45;99765.97;;;-6.39;79.71
63351;BME280;64988;51.058;17.040;2022-11-20T06:29:37;99761.25;;;-6.23;79.65
63351;BME280;64988;51.058;17.040;2022-11-20T06:35:29;99761.94;;;-6.12;80.14
63351;BME280;64988;51.058;17.040;2022-11-20T06:41:23;99764.28;;;-6.00;78.89
63351;BME280;64988;51.058;17.040;2022-11-20T06:47:15;99751.75;;;-5.87;79.24
63351;BME280;64988;51.058;17.040;2022-11-20T06:53:07;99751.41;;;-5.72;78.84
63351;BME280;64988;51.058;17.040;2022-11-20T06:59:03;99757.84;;;-5.47;79.12
63351;BME280;64988;51.058;17.040;2022-11-20T07:04:56;99768.31;;;-5.08;79.33
63351;BME280;64988;51.058;17.040;2022-11-20T07:10:49;99765.63;;;-3.78;79.83
63351;BME280;64988;51.058;17.040;2022-11-20T07:16:41;99760.69;;;-2.26;79.44
63351;BME280;64988;51.058;17.040;2022-11-20T07:22:33;99769.44;;;-1.10;76.42
63351;BME280;64988;51.058;17.040;2022-11-20T07:28:26;99740.47;;;-0.10;73.95
63351;BME280;64988;51.058;17.040;2022-11-20T07:34:19;99736.06;;;0.46;70.84
63351;BME280;64988;51.058;17.040;2022-11-20T07:40:12;99728.16;;;1.52;69.69
63351;BME280;64988;51.058;17.040;2022-11-20T07:46:05;99735.28;;;2.52;67.03
63351;BME280;64988;51.058;17.040;2022-11-20T07:51:57;99728.50;;;2.93;62.85
63351;BME280;64988;51.058;17.040;2022-11-20T07:57:56;99715.19;;;3.53;59.73
63351;BME280;64988;51.058;17.040;2022-11-20T08:03:50;99719.31;;;4.16;58.43
63351;BME280;64988;51.058;17.040;2022-11-20T08:09:43;99713.19;;;4.57;55.45
63351;BME280;64988;51.058;17.040;2022-11-20T08:15:36;99717.63;;;5.11;53.59
63351;BME280;64988;51.058;17.040;2022-11-20T08:21:30;99710.38;;;5.53;51.46
63351;BME280;64988;51.058;17.040;2022-11-20T08:27:28;99704.66;;;5.71;48.73
63351;BME280;64988;51.058;17.040;2022-11-20T08:33:21;99684.56;;;5.91;47.92
63351;BME280;64988;51.058;17.040;2022-11-20T08:39:15;99684.94;;;5.85;46.54
63351;BME280;64988;51.058;17.040;2022-11-20T08:45:08;99694.41;;;6.28;47.15
63351;BME280;64988;51.058;17.040;2022-11-20T08:51:00;99692.25;;;6.33;45.09
63351;BME280;64988;51.058;17.040;2022-11-20T08:56:53;99701.59;;;6.28;44.92
63351;BME280;64988;51.058;17.040;2022-11-20T09:02:46;99695.06;;;6.32;45.31
63351;BME280;64988;51.058;17.040;2022-11-20T09:08:40;99688.81;;;6.44;44.14
63351;BME280;64988;51.058;17.040;2022-11-20T09:14:32;99682.97;;;6.14;43.87
63351;BME280;64988;51.058;17.040;2022-11-20T09:20:28;99690.94;;;5.76;45.54
63351;BME280;64988;51.058;17.040;2022-11-20T09:26:22;99685.53;;;5.38;47.18
63351;BME280;64988;51.058;17.040;2022-11-20T09:32:13;99676.00;;;5.07;47.01
63351;BME280;64988;51.058;17.040;2022-11-20T09:38:07;99679.66;;;5.06;47.16
63351;BME280;64988;51.058;17.040;2022-11-20T09:50:25;99658.66;;;4.33;47.28
63351;BME280;64988;51.058;17.040;2022-11-20T09:56:20;99653.50;;;3.87;49.09
63351;BME280;64988;51.058;17.040;2022-11-20T10:03:00;99651.69;;;4.02;50.55
63351;BME280;64988;51.058;17.040;2022-11-20T10:08:43;99658.66;;;3.90;49.94
63351;BME280;64988;51.058;17.040;2022-11-20T10:15:10;99646.31;;;3.15;52.06
63351;BME280;64988;51.058;17.040;2022-11-20T10:21:15;99636.22;;;3.06;54.05
63351;BME280;64988;51.058;17.040;2022-11-20T10:33:19;99618.16;;;2.35;53.62
63351;BME280;64988;51.058;17.040;2022-11-20T10:39:18;99618.59;;;2.11;55.17
63351;BME280;64988;51.058;17.040;2022-11-20T10:58:00;99593.91;;;2.39;52.49
63351;BME280;64988;51.058;17.040;2022-11-20T11:03:55;99603.03;;;2.51;54.04
63351;BME280;64988;51.058;17.040;2022-11-20T11:09:52;99593.09;;;2.39;53.05
63351;BME280;64988;51.058;17.040;2022-11-20T11:15:44;99582.59;;;2.51;53.18
63351;BME280;64988;51.058;17.040;2022-11-20T11:21:37;99570.63;;;2.43;53.88
63351;BME280;64988;51.058;17.040;2022-11-20T11:27:46;99578.41;;;2.32;53.08
63351;BME280;64988;51.058;17.040;2022-11-20T11:33:38;99563.34;;;2.46;53.36
63351;BME280;64988;51.058;17.040;2022-11-20T11:39:33;99555.97;;;2.51;52.89
63351;BME280;64988;51.058;17.040;2022-11-20T11:45:26;99542.91;;;2.47;53.16
63351;BME280;64988;51.058;17.040;2022-11-20T11:51:25;99540.13;;;2.64;52.56
63351;BME280;64988;51.058;17.040;2022-11-20T12:03:52;99521.22;;;2.53;53.19
63351;BME280;64988;51.058;17.040;2022-11-20T12:09:52;99524.16;;;2.78;53.64
63351;BME280;64988;51.058;17.040;2022-11-20T12:15:46;99514.28;;;2.94;54.38
63351;BME280;64988;51.058;17.040;2022-11-20T12:28:03;99508.72;;;3.13;54.21
63351;BME280;64988;51.058;17.040;2022-11-20T12:34:12;99509.22;;;3.20;53.45
63351;BME280;64988;51.058;17.040;2022-11-20T12:46:40;99513.19;;;3.27;54.47
63351;BME280;64988;51.058;17.040;2022-11-20T12:52:38;99511.31;;;3.29;53.91
63351;BME280;64988;51.058;17.040;2022-11-20T13:11:19;99486.91;;;3.06;51.00
63351;BME280;64988;51.058;17.040;2022-11-20T13:17:40;99470.41;;;2.86;51.55
63351;BME280;64988;51.058;17.040;2022-11-20T13:23:34;99453.00;;;2.80;50.86
63351;BME280;64988;51.058;17.040;2022-11-20T13:29:28;99458.03;;;2.71;52.15
63351;BME280;64988;51.058;17.040;2022-11-20T13:35:33;99448.69;;;2.63;53.16
63351;BME280;64988;51.058;17.040;2022-11-20T13:41:34;99446.28;;;2.59;52.51
63351;BME280;64988;51.058;17.040;2022-11-20T13:47:30;99444.28;;;2.48;54.05
63351;BME280;64988;51.058;17.040;2022-11-20T13:53:57;99436.38;;;2.47;54.56
63351;BME280;64988;51.058;17.040;2022-11-20T14:00:17;99431.97;;;2.32;55.50
63351;BME280;64988;51.058;17.040;2022-11-20T14:06:20;99439.13;;;2.16;55.84
63351;BME280;64988;51.058;17.040;2022-11-20T14:12:20;99432.63;;;2.05;57.29
63351;BME280;64988;51.058;17.040;2022-11-20T14:18:25;99423.13;;;1.86;58.02
63351;BME280;64988;51.058;17.040;2022-11-20T14:24:22;99411.81;;;1.67;59.55
63351;BME280;64988;51.058;17.040;2022-11-20T14:30:23;99406.25;;;1.40;60.45
63351;BME280;64988;51.058;17.040;2022-11-20T14:36:21;99416.63;;;1.13;60.89
63351;BME280;64988;51.058;17.040;2022-11-20T14:42:20;99416.69;;;0.79;61.67
63351;BME280;64988;51.058;17.040;2022-11-20T14:48:17;99415.91;;;0.44;63.27
63351;BME280;64988;51.058;17.040;2022-11-20T14:54:17;99403.97;;;0.18;63.96
63351;BME280;64988;51.058;17.040;2022-11-20T15:06:11;99401.25;;;-0.33;66.36
63351;BME280;64988;51.058;17.040;2022-11-20T15:12:05;99414.00;;;-0.59;67.07
63351;BME280;64988;51.058;17.040;2022-11-20T15:17:59;99407.28;;;-0.84;67.76
63351;BME280;64988;51.058;17.040;2022-11-20T15:23:57;99406.03;;;-1.15;69.35
63351;BME280;64988;51.058;17.040;2022-11-20T15:29:51;99416.16;;;-1.43;71.70
63351;BME280;64988;51.058;17.040;2022-11-20T15:35:45;99404.78;;;-1.65;72.34
63351;BME280;64988;51.058;17.040;2022-11-20T15:41:40;99406.63;;;-1.87;73.02
63351;BME280;64988;51.058;17.040;2022-11-20T15:47:37;99416.25;;;-2.06;74.14
63351;BME280;64988;51.058;17.040;2022-11-20T15:53:30;99408.59;;;-2.13;74.24
63351;BME280;64988;51.058;17.040;2022-11-20T15:59:23;99414.25;;;-2.22;74.63
63351;BME280;64988;51.058;17.040;2022-11-20T16:05:17;99411.44;;;-2.39;74.07
63351;BME280;64988;51.058;17.040;2022-11-20T16:11:15;99399.91;;;-2.58;74.30
63351;BME280;64988;51.058;17.040;2022-11-20T16:17:10;99400.16;;;-2.64;74.69
63351;BME280;64988;51.058;17.040;2022-11-20T16:23:03;99406.91;;;-2.79;75.20
63351;BME280;64988;51.058;17.040;2022-11-20T16:28:58;99394.72;;;-2.83;75.74
63351;BME280;64988;51.058;17.040;2022-11-20T16:34:50;99408.50;;;-2.75;75.91
63351;BME280;64988;51.058;17.040;2022-11-20T16:40:43;99397.25;;;-2.80;76.03
63351;BME280;64988;51.058;17.040;2022-11-20T16:46:37;99389.97;;;-2.96;76.86
63351;BME280;64988;51.058;17.040;2022-11-20T16:52:32;99403.41;;;-3.02;76.73
63351;BME280;64988;51.058;17.040;2022-11-20T16:58:24;99400.22;;;-3.10;77.16
63351;BME280;64988;51.058;17.040;2022-11-20T17:04:17;99403.00;;;-3.13;77.40
63351;BME280;64988;51.058;17.040;2022-11-20T17:10:10;99398.34;;;-3.30;77.37
63351;BME280;64988;51.058;17.040;2022-11-20T17:16:05;99397.81;;;-3.40;77.25
63351;BME280;64988;51.058;17.040;2022-11-20T17:21:58;99396.34;;;-3.48;77.44
63351;BME280;64988;51.058;17.040;2022-11-20T17:27:53;99404.34;;;-3.50;78.51
63351;BME280;64988;51.058;17.040;2022-11-20T17:33:45;99423.47;;;-3.45;79.25
63351;BME280;64988;51.058;17.040;2022-11-20T17:39:38;99419.97;;;-3.45;79.04
63351;BME280;64988;51.058;17.040;2022-11-20T17:45:34;99422.31;;;-3.36;80.20
63351;BME280;64988;51.058;17.040;2022-11-20T17:51:29;99424.59;;;-3.27;80.41
63351;BME280;64988;51.058;17.040;2022-11-20T17:57:23;99425.28;;;-3.22;80.93
63351;BME280;64988;51.058;17.040;2022-11-20T18:03:33;99413.63;;;-3.17;80.77
63351;BME280;64988;51.058;17.040;2022-11-20T18:09:26;99412.72;;;-3.15;80.62
63351;BME280;64988;51.058;17.040;2022-11-20T18:15:19;99397.19;;;-3.23;80.86
63351;BME280;64988;51.058;17.040;2022-11-20T18:21:12;99382.75;;;-2.70;83.55
63351;BME280;64988;51.058;17.040;2022-11-20T18:27:07;99393.34;;;-2.70;82.54
63351;BME280;64988;51.058;17.040;2022-11-20T18:33:00;99390.31;;;-2.82;81.61
63351;BME280;64988;51.058;17.040;2022-11-20T18:38:55;99403.31;;;-2.99;80.79
63351;BME280;64988;51.058;17.040;2022-11-20T18:44:47;99404.81;;;-3.15;80.34
63351;BME280;64988;51.058;17.040;2022-11-20T18:50:42;99415.81;;;-3.28;80.41
63351;BME280;64988;51.058;17.040;2022-11-20T18:56:35;99420.72;;;-3.42;80.44
63351;BME280;64988;51.058;17.040;2022-11-20T19:02:28;99419.03;;;-3.43;81.06
63351;BME280;64988;51.058;17.040;2022-11-20T19:08:22;99403.53;;;-3.52;80.74
63351;BME280;64988;51.058;17.040;2022-11-20T19:14:15;99402.03;;;-3.59;81.39
63351;BME280;64988;51.058;17.040;2022-11-20T19:20:08;99402.88;;;-3.58;81.12
63351;BME280;64988;51.058;17.040;2022-11-20T19:26:03;99421.50;;;-3.15;82.21
63351;BME280;64988;51.058;17.040;2022-11-20T19:31:58;99412.34;;;-2.83;81.97
63351;BME280;64988;51.058;17.040;2022-11-20T19:37:53;99408.81;;;-2.60;81.36
63351;BME280;64988;51.058;17.040;2022-11-20T19:43:46;99410.59;;;-2.39;81.62
63351;BME280;64988;51.058;17.040;2022-11-20T19:49:45;99403.44;;;-2.16;81.27
63351;BME280;64988;51.058;17.040;2022-11-20T19:55:39;99410.13;;;-2.07;80.52
63351;BME280;64988;51.058;17.040;2022-11-20T20:01:57;99414.69;;;-2.10;79.38
63351;BME280;64988;51.058;17.040;2022-11-20T20:07:50;99421.66;;;-2.09;79.50
63351;BME280;64988;51.058;17.040;2022-11-20T20:13:45;99437.69;;;-1.92;79.98
63351;BME280;64988;51.058;17.040;2022-11-20T20:19:38;99453.00;;;-1.79;80.09
63351;BME280;64988;51.058;17.040;2022-11-20T20:25:31;99429.53;;;-1.66;78.96
63351;BME280;64988;51.058;17.040;2022-11-20T20:31:25;99430.56;;;-1.70;78.42
63351;BME280;64988;51.058;17.040;2022-11-20T20:37:18;99431.94;;;-2.02;77.92
63351;BME280;64988;51.058;17.040;2022-11-20T20:43:11;99431.63;;;-2.36;78.37
63351;BME280;64988;51.058;17.040;2022-11-20T20:49:03;99425.59;;;-2.40;78.18
63351;BME280;64988;51.058;17.040;2022-11-20T20:54:56;99422.88;;;-2.60;77.87
63351;BME280;64988;51.058;17.040;2022-11-20T21:00:49;99422.88;;;-2.82;77.91
63351;BME280;64988;51.058;17.040;2022-11-20T21:06:41;99415.94;;;-3.07;77.71
63351;BME280;64988;51.058;17.040;2022-11-20T21:12:35;99410.78;;;-3.10;79.03
63351;BME280;64988;51.058;17.040;2022-11-20T21:18:28;99412.59;;;-3.12;79.10
63351;BME280;64988;51.058;17.040;2022-11-20T21:24:22;99417.44;;;-3.24;79.15
63351;BME280;64988;51.058;17.040;2022-11-20T21:30:15;99420.28;;;-3.53;79.57
63351;BME280;64988;51.058;17.040;2022-11-20T21:36:10;99414.13;;;-3.53;79.96
63351;BME280;64988;51.058;17.040;2022-11-20T21:42:02;99416.34;;;-3.66;81.26
63351;BME280;64988;51.058;17.040;2022-11-20T21:47:54;99401.09;;;-3.58;81.84
63351;BME280;64988;51.058;17.040;2022-11-20T21:53:47;99403.31;;;-3.46;81.61
63351;BME280;64988;51.058;17.040;2022-11-20T21:59:40;99402.81;;;-3.55;81.70
63351;BME280;64988;51.058;17.040;2022-11-20T22:05:33;99405.94;;;-3.69;82.09
63351;BME280;64988;51.058;17.040;2022-11-20T22:11:25;99398.00;;;-3.69;81.71
63351;BME280;64988;51.058;17.040;2022-11-20T22:17:17;99390.19;;;-3.97;80.60
63351;BME280;64988;51.058;17.040;2022-11-20T22:23:29;99393.38;;;-4.12;80.82
63351;BME280;64988;51.058;17.040;2022-11-20T22:29:21;99387.78;;;-4.29;81.48
63351;BME280;64988;51.058;17.040;2022-11-20T22:35:13;99395.00;;;-4.34;81.92
63351;BME280;64988;51.058;17.040;2022-11-20T22:41:08;99395.41;;;-4.20;83.05
63351;BME280;64988;51.058;17.040;2022-11-20T22:47:00;99396.88;;;-4.11;83.17
63351;BME280;64988;51.058;17.040;2022-11-20T22:52:58;99389.88;;;-4.12;81.82
63351;BME280;64988;51.058;17.040;2022-11-20T22:58:51;99392.16;;;-4.28;82.63
63351;BME280;64988;51.058;17.040;2022-11-20T23:04:44;99392.03;;;-4.23;81.61
63351;BME280;64988;51.058;17.040;2022-11-20T23:10:37;99376.03;;;-4.44;82.40
63351;BME280;64988;51.058;17.040;2022-11-20T23:16:31;99376.03;;;-4.44;82.83
63351;BME280;64988;51.058;17.040;2022-11-20T23:22:24;99362.13;;;-4.22;83.58
63351;BME280;64988;51.058;17.040;2022-11-20T23:28:17;99348.22;;;-4.01;83.25
63351;BME280;64988;51.058;17.040;2022-11-20T23:34:09;99353.44;;;-4.26;82.29
63351;BME280;64988;51.058;17.040;2022-11-20T23:40:03;99331.25;;;-4.44;82.40
63351;BME280;64988;51.058;17.040;2022-11-20T23:45:57;99336.41;;;-4.41;83.35
63351;BME280;64988;51.058;17.040;2022-11-20T23:51:50;99333.34;;;-4.53;83.43
63351;BME280;64988;51.058;17.040;2022-11-20T23:57:41;99336.06;;;-4.56;82.72
